createdAt,value
2022-10-17T00:00:37.180Z,12.38
2022-10-17T00:03:05.082Z,12.33
2022-10-17T00:05:32.847Z,12.37
2022-10-17T00:08:00.688Z,12.43
2022-10-17T00:10:28.432Z,12.53
2022-10-17T00:12:57.559Z,12.42
2022-10-17T00:15:25.436Z,12.46
2022-10-17T00:17:53.191Z,12.45
2022-10-17T00:20:21.232Z,12.47
2022-10-17T00:22:48.932Z,12.47
2022-10-17T00:25:16.695Z,12.51
2022-10-17T00:27:44.683Z,12.50
2022-10-17T00:30:16.486Z,12.55
2022-10-17T00:32:44.495Z,12.52
2022-10-17T00:35:12.531Z,12.50
2022-10-17T00:37:40.370Z,12.66
2022-10-17T00:40:09.468Z,12.55
2022-10-17T00:42:37.362Z,12.52
2022-10-17T00:45:13.734Z,12.49
2022-10-17T00:47:49.906Z,12.47
2022-10-17T00:50:19.400Z,12.50
2022-10-17T00:52:49.603Z,12.53
2022-10-17T00:55:21.004Z,12.58
2022-10-17T00:57:49.503Z,12.96
2022-10-17T01:00:18.867Z,13.26
2022-10-17T01:02:48.419Z,13.29
2022-10-17T01:05:19.251Z,13.09
2022-10-17T01:07:49.090Z,12.96
2022-10-17T01:10:17.726Z,12.84
2022-10-17T01:13:04.149Z,12.77
2022-10-17T01:15:45.044Z,12.78
2022-10-17T01:18:24.261Z,12.74
2022-10-17T01:21:10.441Z,12.68
2022-10-17T01:24:04.084Z,12.73
2022-10-17T01:26:45.312Z,12.97
2022-10-17T01:29:33.510Z,12.74
2022-10-17T01:32:08.005Z,12.59
2022-10-17T01:34:40.045Z,12.77
2022-10-17T01:37:17.662Z,12.93
2022-10-17T01:39:49.789Z,12.89
2022-10-17T01:42:24.643Z,12.68
2022-10-17T01:44:57.782Z,12.72
2022-10-17T01:47:31.015Z,12.56
2022-10-17T01:50:07.793Z,12.52
2022-10-17T01:52:41.042Z,12.69
2022-10-17T01:55:12.213Z,12.79
2022-10-17T01:57:44.319Z,12.71
2022-10-17T02:00:16.608Z,12.65
2022-10-17T02:02:49.224Z,12.66
2022-10-17T02:05:19.837Z,12.70
2022-10-17T02:07:47.802Z,12.77
2022-10-17T02:10:22.769Z,12.76
2022-10-17T02:12:58.004Z,12.76
2022-10-17T02:15:53.036Z,12.75
2022-10-17T02:18:39.042Z,12.67
2022-10-17T02:21:12.479Z,12.76
2022-10-17T02:23:49.155Z,12.81
2022-10-17T02:26:23.002Z,12.80
2022-10-17T02:29:00.024Z,12.70
2022-10-17T02:31:32.125Z,12.61
2022-10-17T02:34:05.859Z,12.60
2022-10-17T02:36:39.403Z,12.63
2022-10-17T02:39:09.307Z,12.48
2022-10-17T02:41:39.808Z,12.53
2022-10-17T02:44:09.491Z,12.45
2022-10-17T02:46:39.490Z,12.55
2022-10-17T02:49:16.612Z,12.60
2022-10-17T02:51:48.173Z,12.66
2022-10-17T02:54:21.350Z,12.65
2022-10-17T02:56:52.131Z,12.62
2022-10-17T02:59:22.405Z,12.71
2022-10-17T03:01:51.566Z,12.58
2022-10-17T03:04:20.964Z,12.55
2022-10-17T03:06:49.580Z,12.48
2022-10-17T03:09:17.648Z,12.39
2022-10-17T03:11:45.374Z,12.38
2022-10-17T03:14:13.232Z,12.35
2022-10-17T03:16:41.766Z,12.43
2022-10-17T03:19:09.525Z,12.39
2022-10-17T03:21:39.043Z,12.42
2022-10-17T03:24:08.494Z,12.42
2022-10-17T03:26:36.407Z,12.38
2022-10-17T03:29:04.887Z,12.49
2022-10-17T03:31:34.423Z,12.47
2022-10-17T03:34:06.805Z,12.53
2022-10-17T03:36:34.756Z,12.51
2022-10-17T03:39:04.865Z,12.54
2022-10-17T03:41:33.048Z,12.61
2022-10-17T03:44:00.937Z,12.68
2022-10-17T03:46:29.035Z,12.58
2022-10-17T03:48:58.736Z,12.51
2022-10-17T03:51:26.588Z,12.52
2022-10-17T03:54:01.408Z,12.52
2022-10-17T03:56:30.566Z,12.51
2022-10-17T03:59:03.062Z,12.47
2022-10-17T04:01:34.081Z,12.43
2022-10-17T04:04:01.974Z,12.40
2022-10-17T04:06:33.567Z,12.44
2022-10-17T04:09:01.945Z,12.40
2022-10-17T04:11:44.286Z,12.45
2022-10-17T04:14:12.363Z,12.41
2022-10-17T04:16:41.219Z,12.32
2022-10-17T04:19:19.121Z,12.21
2022-10-17T04:21:48.271Z,12.39
2022-10-17T04:24:16.738Z,12.39
2022-10-17T04:27:10.481Z,12.36
2022-10-17T04:29:43.929Z,12.34
2022-10-17T04:32:17.419Z,12.31
2022-10-17T04:34:50.502Z,12.40
2022-10-17T04:37:20.141Z,12.33
2022-10-17T04:39:50.207Z,12.39
2022-10-17T04:42:19.451Z,12.40
2022-10-17T04:44:47.765Z,12.37
2022-10-17T04:47:18.059Z,12.40
2022-10-17T04:49:45.816Z,12.36
2022-10-17T04:52:15.496Z,12.30
2022-10-17T04:54:45.124Z,12.32
2022-10-17T04:57:14.882Z,12.34
2022-10-17T04:59:50.198Z,12.30
2022-10-17T05:02:36.769Z,12.31
2022-10-17T05:05:05.595Z,12.28
2022-10-17T05:07:33.434Z,12.31
2022-10-17T05:10:09.748Z,12.35
2022-10-17T05:12:37.648Z,12.35
2022-10-17T05:15:09.293Z,12.43
2022-10-17T05:17:37.093Z,12.51
2022-10-17T05:20:05.721Z,12.47
2022-10-17T05:22:38.271Z,12.43
2022-10-17T05:25:11.013Z,12.49
2022-10-17T05:27:39.007Z,12.50
2022-10-17T05:30:09.870Z,12.53
2022-10-17T05:32:39.792Z,12.44
2022-10-17T05:35:08.970Z,12.43
2022-10-17T05:37:37.865Z,12.49
2022-10-17T05:40:07.200Z,12.48
2022-10-17T05:42:35.432Z,12.42
2022-10-17T05:45:04.551Z,12.41
2022-10-17T05:47:34.423Z,12.51
2022-10-17T05:50:02.302Z,12.54
2022-10-17T05:52:42.873Z,12.57
2022-10-17T05:55:16.745Z,12.62
2022-10-17T05:57:45.478Z,12.69
2022-10-17T06:00:17.740Z,12.70
2022-10-17T06:02:54.537Z,12.63
2022-10-17T06:05:23.657Z,12.65
2022-10-17T06:07:52.559Z,12.64
2022-10-17T06:10:21.601Z,12.72
2022-10-17T06:12:49.763Z,12.83
2022-10-17T06:15:17.807Z,12.88
2022-10-17T06:17:51.446Z,12.92
2022-10-17T06:20:20.808Z,13.03
2022-10-17T06:22:48.725Z,13.01
2022-10-17T06:25:24.601Z,12.98
2022-10-17T06:30:22.970Z,12.98
2022-10-17T06:32:51.021Z,13.07
2022-10-17T06:35:20.732Z,13.16
2022-10-17T06:37:50.169Z,13.16
2022-10-17T06:40:20.146Z,13.18
2022-10-17T06:43:01.009Z,13.31
2022-10-17T06:45:59.997Z,13.31
2022-10-17T06:48:34.502Z,13.33
2022-10-17T06:51:15.348Z,13.39
2022-10-17T06:53:49.934Z,13.38
2022-10-17T06:56:30.426Z,13.50
2022-10-17T06:59:27.311Z,13.56
2022-10-17T07:02:10.585Z,13.58
2022-10-17T07:04:39.130Z,13.69
2022-10-17T07:07:08.384Z,13.77
2022-10-17T07:09:36.643Z,13.76
2022-10-17T07:12:07.938Z,13.82
2022-10-17T07:14:35.774Z,13.81
2022-10-17T07:17:04.189Z,13.87
2022-10-17T07:19:33.429Z,13.99
2022-10-17T07:22:01.320Z,14.03
2022-10-17T07:24:30.630Z,14.03
2022-10-17T07:27:06.129Z,14.01
2022-10-17T07:29:34.089Z,14.20
2022-10-17T07:32:16.713Z,14.19
2022-10-17T07:34:44.537Z,14.30
2022-10-17T07:37:12.402Z,14.32
2022-10-17T07:39:47.602Z,14.41
2022-10-17T07:42:15.539Z,14.52
2022-10-17T07:44:44.078Z,14.58
2022-10-17T07:47:12.010Z,14.70
2022-10-17T07:49:42.462Z,14.75
2022-10-17T07:52:11.316Z,14.82
2022-10-17T07:54:39.376Z,15.08
2022-10-17T07:57:08.866Z,15.09
2022-10-17T07:59:38.699Z,15.30
2022-10-17T08:02:08.119Z,15.35
2022-10-17T08:04:39.120Z,15.41
2022-10-17T08:07:18.615Z,15.73
2022-10-17T08:09:49.006Z,15.86
2022-10-17T08:12:18.703Z,15.86
2022-10-17T08:14:49.558Z,15.95
2022-10-17T08:17:18.607Z,16.03
2022-10-17T08:19:46.441Z,16.10
2022-10-17T08:22:16.529Z,16.23
2022-10-17T08:24:45.287Z,16.32
2022-10-17T08:27:14.974Z,16.43
2022-10-17T08:29:48.357Z,16.55
2022-10-17T08:32:16.321Z,16.60
2022-10-17T08:34:44.294Z,16.63
2022-10-17T08:37:13.458Z,16.74
2022-10-17T08:39:42.205Z,16.70
2022-10-17T08:42:34.268Z,16.87
2022-10-17T08:45:14.669Z,16.96
2022-10-17T08:47:46.234Z,17.08
2022-10-17T08:50:18.862Z,17.20
2022-10-17T08:52:52.671Z,17.32
2022-10-17T08:55:29.547Z,17.41
2022-10-17T08:57:57.511Z,17.47
2022-10-17T09:00:29.537Z,17.57
2022-10-17T09:03:15.133Z,17.66
2022-10-17T09:05:49.989Z,17.87
2022-10-17T09:08:29.175Z,17.96
2022-10-17T09:10:59.410Z,18.07
2022-10-17T09:13:45.441Z,18.24
2022-10-17T09:16:32.203Z,18.41
2022-10-17T09:19:06.077Z,18.51
2022-10-17T09:21:42.737Z,18.62
2022-10-17T09:24:17.279Z,18.74
2022-10-17T09:26:46.724Z,18.87
2022-10-17T09:29:23.530Z,19.01
2022-10-17T09:32:01.526Z,19.14
2022-10-17T09:34:32.041Z,19.26
2022-10-17T09:37:01.169Z,19.39
2022-10-17T09:39:31.935Z,19.47
2022-10-17T09:42:01.674Z,19.60
2022-10-17T09:44:32.395Z,19.60
2022-10-17T09:47:16.414Z,19.65
2022-10-17T09:49:46.271Z,19.60
2022-10-17T09:52:17.427Z,19.78
2022-10-17T09:54:47.863Z,19.88
2022-10-17T09:57:17.497Z,20.01
2022-10-17T09:59:47.238Z,20.11
2022-10-17T10:02:19.774Z,20.18
2022-10-17T10:05:04.966Z,20.27
2022-10-17T10:07:36.077Z,20.40
2022-10-17T10:10:07.433Z,20.52
2022-10-17T10:12:39.853Z,20.65
2022-10-17T10:15:34.753Z,20.78
2022-10-17T10:18:04.410Z,20.91
2022-10-17T10:20:35.138Z,20.99
2022-10-17T10:23:08.476Z,21.11
2022-10-17T10:25:36.776Z,21.31
2022-10-17T10:28:11.760Z,21.30
2022-10-17T10:30:40.079Z,21.43
2022-10-17T10:33:12.807Z,21.50
2022-10-17T10:35:40.815Z,21.39
2022-10-17T10:38:12.441Z,21.53
2022-10-17T10:40:47.969Z,21.57
2022-10-17T10:43:24.108Z,21.66
2022-10-17T10:45:53.283Z,21.77
2022-10-17T10:48:25.034Z,21.88
2022-10-17T10:50:57.858Z,21.98
2022-10-17T10:53:42.490Z,22.17
2022-10-17T10:56:17.023Z,22.36
2022-10-17T10:58:53.788Z,22.48
2022-10-17T11:01:30.323Z,22.58
2022-10-17T11:04:19.390Z,22.60
2022-10-17T11:06:49.997Z,22.73
2022-10-17T11:09:31.430Z,22.83
2022-10-17T11:12:07.563Z,22.88
2022-10-17T11:14:44.471Z,23.07
2022-10-17T11:17:20.475Z,23.25
2022-10-17T11:19:57.057Z,23.41
2022-10-17T11:22:29.421Z,23.46
2022-10-17T11:25:00.752Z,23.57
2022-10-17T11:27:31.603Z,23.66
2022-10-17T11:29:59.634Z,23.75
2022-10-17T11:32:32.814Z,23.72
2022-10-17T11:35:09.067Z,23.83
2022-10-17T11:37:40.991Z,23.89
2022-10-17T11:40:19.274Z,23.98
2022-10-17T11:42:58.199Z,23.98
2022-10-17T11:45:29.925Z,24.15
2022-10-17T11:48:06.161Z,24.25
2022-10-17T11:53:30.000Z,24.62
2022-10-17T11:56:00.111Z,24.41
2022-10-17T11:58:35.942Z,24.79
2022-10-17T12:01:17.143Z,24.87
2022-10-17T12:03:59.709Z,24.72
2022-10-17T12:06:44.038Z,25.96
2022-10-17T12:09:21.609Z,28.15
2022-10-17T12:11:54.090Z,29.31
2022-10-17T12:14:52.287Z,29.56
2022-10-17T12:17:29.857Z,28.88
2022-10-17T12:20:33.625Z,29.84
2022-10-17T12:23:21.325Z,29.89
2022-10-17T12:25:51.029Z,29.50
2022-10-17T12:28:25.916Z,30.71
2022-10-17T12:30:57.517Z,31.34
2022-10-17T12:33:31.744Z,30.81
2022-10-17T12:36:46.634Z,31.89
2022-10-17T12:39:48.991Z,32.12
2022-10-17T12:42:52.105Z,32.79
2022-10-17T12:45:52.030Z,32.50
2022-10-17T12:48:56.655Z,32.70
2022-10-17T12:51:40.518Z,30.22
2022-10-17T12:54:13.370Z,29.71
2022-10-17T12:56:43.803Z,28.98
2022-10-17T12:59:17.640Z,28.38
2022-10-17T13:01:48.603Z,26.95
2022-10-17T13:04:17.281Z,26.89
2022-10-17T13:06:48.687Z,26.51
2022-10-17T13:09:28.550Z,26.68
2022-10-17T13:12:00.091Z,26.69
2022-10-17T13:14:29.606Z,26.74
2022-10-17T13:16:59.504Z,26.13
2022-10-17T13:19:31.377Z,26.20
2022-10-17T13:22:05.318Z,25.95
2022-10-17T13:24:36.965Z,25.66
2022-10-17T13:27:08.070Z,25.71
2022-10-17T13:29:35.852Z,25.61
2022-10-17T13:32:05.737Z,25.48
2022-10-17T13:34:34.930Z,25.47
2022-10-17T13:37:05.287Z,25.24
2022-10-17T13:39:54.499Z,25.07
2022-10-17T13:42:28.566Z,25.20
2022-10-17T13:44:57.923Z,25.15
2022-10-17T13:47:27.921Z,25.13
2022-10-17T13:49:56.874Z,25.04
2022-10-17T13:52:28.925Z,24.86
2022-10-17T13:55:08.421Z,24.89
2022-10-17T13:57:37.614Z,24.76
2022-10-17T14:00:11.610Z,24.52
2022-10-17T14:02:43.785Z,24.69
2022-10-17T14:05:18.297Z,24.65
2022-10-17T14:08:10.552Z,24.83
2022-10-17T14:10:41.730Z,24.86
2022-10-17T14:13:21.924Z,24.81
2022-10-17T14:15:50.419Z,24.69
2022-10-17T14:18:21.800Z,24.65
2022-10-17T14:21:33.989Z,24.70
2022-10-17T14:23:41.266Z,24.75
2022-10-17T14:26:13.687Z,24.52
2022-10-17T14:28:45.001Z,24.53
2022-10-17T14:31:24.961Z,24.70
2022-10-17T14:33:54.538Z,24.71
2022-10-17T14:36:32.232Z,24.58
2022-10-17T14:39:01.764Z,24.39
2022-10-17T14:41:49.074Z,24.52
2022-10-17T14:44:22.596Z,24.42
2022-10-17T14:46:55.175Z,24.46
2022-10-17T14:49:28.581Z,24.36
2022-10-17T14:52:16.960Z,24.32
2022-10-17T14:54:47.532Z,24.12
2022-10-17T14:57:18.736Z,24.03
2022-10-17T14:59:55.835Z,23.83
2022-10-17T15:02:24.569Z,23.73
2022-10-17T15:04:52.550Z,23.72
2022-10-17T15:07:22.147Z,23.74
2022-10-17T15:09:51.739Z,23.74
2022-10-17T15:12:21.397Z,23.69
2022-10-17T15:14:50.734Z,23.59
2022-10-17T15:17:26.809Z,23.47
2022-10-17T15:19:54.990Z,23.43
2022-10-17T15:22:22.843Z,23.47
2022-10-17T15:24:51.261Z,23.41
2022-10-17T15:27:21.225Z,23.38
2022-10-17T15:29:51.510Z,23.32
2022-10-17T15:32:19.648Z,23.42
2022-10-17T15:34:47.496Z,23.32
2022-10-17T15:37:20.692Z,23.27
2022-10-17T15:39:53.218Z,23.13
2022-10-17T15:42:22.689Z,23.05
2022-10-17T15:44:52.004Z,23.01
2022-10-17T15:47:25.532Z,22.81
2022-10-17T15:49:53.703Z,22.75
2022-10-17T15:52:21.772Z,22.76
2022-10-17T15:54:49.754Z,22.74
2022-10-17T15:57:20.359Z,22.64
2022-10-17T15:59:49.577Z,22.63
2022-10-17T16:02:20.323Z,22.51
2022-10-17T16:04:49.931Z,22.34
2022-10-17T16:07:18.492Z,22.24
2022-10-17T16:09:46.381Z,22.23
2022-10-17T16:12:17.889Z,22.09
2022-10-17T16:14:46.054Z,22.05
2022-10-17T16:17:15.534Z,21.94
2022-10-17T16:19:45.172Z,21.83
2022-10-17T16:22:21.144Z,21.95
2022-10-17T16:24:48.905Z,21.61
2022-10-17T16:27:16.726Z,21.52
2022-10-17T16:29:44.628Z,21.58
2022-10-17T16:32:12.447Z,21.51
2022-10-17T16:34:40.356Z,21.32
2022-10-17T16:37:09.603Z,21.22
2022-10-17T16:39:37.483Z,21.04
2022-10-17T16:42:05.521Z,21.05
2022-10-17T16:44:33.558Z,21.04
2022-10-17T16:47:01.761Z,20.71
2022-10-17T16:49:29.623Z,20.74
2022-10-17T16:51:57.532Z,20.72
2022-10-17T16:54:26.855Z,20.64
2022-10-17T16:56:54.725Z,20.58
2022-10-17T16:59:22.655Z,20.56
2022-10-17T17:01:50.609Z,20.11
2022-10-17T17:04:19.095Z,20.21
2022-10-17T17:06:50.148Z,20.11
2022-10-17T17:09:20.959Z,20.11
2022-10-17T17:11:50.156Z,19.88
2022-10-17T17:14:18.090Z,19.38
2022-10-17T17:16:46.055Z,19.36
2022-10-17T17:19:16.995Z,19.50
2022-10-17T17:21:49.994Z,19.51
2022-10-17T17:24:18.463Z,19.47
2022-10-17T17:26:47.173Z,19.42
2022-10-17T17:29:16.395Z,19.48
2022-10-17T17:31:45.493Z,19.65
2022-10-17T17:34:17.159Z,19.47
2022-10-17T17:36:46.328Z,19.56
2022-10-17T17:39:15.659Z,19.13
2022-10-17T17:41:45.596Z,19.18
2022-10-17T17:44:16.647Z,18.94
2022-10-17T17:46:46.687Z,18.92
2022-10-17T17:49:15.081Z,18.87
2022-10-17T17:51:46.189Z,18.88
2022-10-17T17:54:14.856Z,18.86
2022-10-17T17:56:42.952Z,18.81
2022-10-17T17:59:12.762Z,18.75
2022-10-17T18:01:40.661Z,18.76
2022-10-17T18:04:10.168Z,18.81
2022-10-17T18:06:39.409Z,18.89
2022-10-17T18:09:08.379Z,18.30
2022-10-17T18:11:37.630Z,18.24
2022-10-17T18:14:08.089Z,18.18
2022-10-17T18:16:37.445Z,17.98
2022-10-17T18:19:13.791Z,17.99
2022-10-17T18:21:44.175Z,17.97
2022-10-17T18:24:12.092Z,18.01
2022-10-17T18:26:39.889Z,17.99
2022-10-17T18:29:07.685Z,18.15
2022-10-17T18:31:36.463Z,18.01
2022-10-17T18:34:06.134Z,18.03
2022-10-17T18:36:35.675Z,18.35
2022-10-17T18:39:06.096Z,18.72
2022-10-17T18:41:34.422Z,18.69
2022-10-17T18:44:03.811Z,18.55
2022-10-17T18:46:35.739Z,18.51
2022-10-17T18:49:04.184Z,18.25
2022-10-17T18:51:32.122Z,17.83
2022-10-17T18:53:59.917Z,17.78
2022-10-17T18:56:29.160Z,17.78
2022-10-17T18:58:57.514Z,17.56
2022-10-17T19:01:27.436Z,17.40
2022-10-17T19:03:58.879Z,17.17
2022-10-17T19:06:28.557Z,17.22
2022-10-17T19:08:57.591Z,17.15
2022-10-17T19:11:28.430Z,17.25
2022-10-17T19:14:01.543Z,17.17
2022-10-17T19:16:43.858Z,17.26
2022-10-17T19:19:14.240Z,17.08
2022-10-17T19:21:43.010Z,17.74
2022-10-17T19:24:14.070Z,17.55
2022-10-17T19:26:42.493Z,17.72
2022-10-17T19:29:14.253Z,17.61
2022-10-17T19:31:42.521Z,17.50
2022-10-17T19:34:11.592Z,17.40
2022-10-17T19:36:40.117Z,17.10
2022-10-17T19:39:09.872Z,16.89
2022-10-17T19:41:37.789Z,17.09
2022-10-17T19:44:05.794Z,17.32
2022-10-17T19:46:35.174Z,17.39
2022-10-17T19:49:03.496Z,17.44
2022-10-17T19:51:31.651Z,17.58
2022-10-17T19:54:01.490Z,17.46
2022-10-17T19:56:32.433Z,17.13
2022-10-17T19:59:00.394Z,16.77
2022-10-17T20:01:30.235Z,16.64
2022-10-17T20:03:59.469Z,16.59
2022-10-17T20:06:28.148Z,16.79
2022-10-17T20:08:56.003Z,16.60
2022-10-17T20:11:26.171Z,16.73
2022-10-17T20:13:54.886Z,17.00
2022-10-17T20:16:25.050Z,16.38
2022-10-17T20:18:55.566Z,16.49
2022-10-17T20:21:27.269Z,16.45
2022-10-17T20:23:55.862Z,16.35
2022-10-17T20:26:33.555Z,16.28
2022-10-17T20:29:08.739Z,16.17
2022-10-17T20:31:37.205Z,16.06
2022-10-17T20:34:05.195Z,16.07
2022-10-17T20:36:37.760Z,15.83
2022-10-17T20:39:07.166Z,15.93
2022-10-17T20:41:35.530Z,15.88
2022-10-17T20:44:03.465Z,15.85
2022-10-17T20:46:44.773Z,15.81
2022-10-17T20:49:22.321Z,15.87
2022-10-17T20:51:51.579Z,15.85
2022-10-17T20:54:19.508Z,15.76
2022-10-17T20:56:47.470Z,15.65
2022-10-17T20:59:17.460Z,15.56
2022-10-17T21:01:46.853Z,15.60
2022-10-17T21:04:44.343Z,15.54
2022-10-17T21:07:04.731Z,15.60
2022-10-17T21:09:32.533Z,15.45
2022-10-17T21:14:36.334Z,15.38
2022-10-17T21:17:05.508Z,15.36
2022-10-17T21:19:33.778Z,15.27
2022-10-17T21:22:01.751Z,15.17
2022-10-17T21:24:32.014Z,15.13
2022-10-17T21:26:59.866Z,15.16
2022-10-17T21:29:30.408Z,15.08
2022-10-17T21:31:58.246Z,15.04
2022-10-17T21:34:26.242Z,14.99
2022-10-17T21:36:54.327Z,14.97
2022-10-17T21:39:23.962Z,14.94
2022-10-17T21:41:54.019Z,14.98
2022-10-17T21:44:23.215Z,14.91
2022-10-17T21:46:51.855Z,14.97
2022-10-17T21:49:21.619Z,14.84
2022-10-17T21:51:49.829Z,15.12
2022-10-17T21:54:19.934Z,15.09
2022-10-17T21:56:48.050Z,14.97
2022-10-17T21:59:17.576Z,15.15
2022-10-17T22:01:46.983Z,14.99
2022-10-17T22:04:17.884Z,14.75
2022-10-17T22:06:47.837Z,14.84
2022-10-17T22:09:18.347Z,14.78
2022-10-17T22:11:50.815Z,14.76
2022-10-17T22:14:21.942Z,14.73
2022-10-17T22:16:50.657Z,14.72
2022-10-17T22:19:21.103Z,14.72
2022-10-17T22:21:49.652Z,14.69
2022-10-17T22:24:19.401Z,14.89
2022-10-17T22:26:50.160Z,14.81
2022-10-17T22:29:18.088Z,14.80
2022-10-17T22:31:47.372Z,14.79
2022-10-17T22:34:16.975Z,14.73
2022-10-17T22:36:48.899Z,14.66
2022-10-17T22:39:17.065Z,14.64
2022-10-17T22:41:45.029Z,14.88
2022-10-17T22:44:12.822Z,14.73
2022-10-17T22:46:40.926Z,14.66
2022-10-17T22:49:10.133Z,14.77
2022-10-17T22:51:37.962Z,14.82
2022-10-17T22:54:06.016Z,14.77
2022-10-17T22:56:33.874Z,14.81
2022-10-17T22:59:01.686Z,14.75
2022-10-17T23:01:29.614Z,14.89
2022-10-17T23:03:57.515Z,14.96
2022-10-17T23:06:26.711Z,14.78
2022-10-17T23:08:55.306Z,14.88
2022-10-17T23:11:24.043Z,14.95
2022-10-17T23:13:52.218Z,15.02
2022-10-17T23:16:20.061Z,14.97
2022-10-17T23:18:47.900Z,14.92
2022-10-17T23:21:16.354Z,14.97
2022-10-17T23:23:45.614Z,14.91
2022-10-17T23:26:15.220Z,14.88
2022-10-17T23:28:44.255Z,14.93
2022-10-17T23:31:15.463Z,14.91
2022-10-17T23:33:45.047Z,14.98
2022-10-17T23:36:14.745Z,15.04
2022-10-17T23:38:44.245Z,15.02
2022-10-17T23:41:14.060Z,14.97
2022-10-17T23:43:41.899Z,14.96
2022-10-17T23:46:09.725Z,14.96
2022-10-17T23:48:38.650Z,15.02
2022-10-17T23:51:07.546Z,15.13
2022-10-17T23:53:35.628Z,15.12
2022-10-17T23:56:04.187Z,15.17
2022-10-17T23:58:33.659Z,15.20
